createdAt,value
2018-05-10T00:06:45.705Z,80.40
2018-05-10T00:16:47.155Z,80.20
2018-05-10T00:26:48.465Z,80.70
2018-05-10T00:36:49.918Z,79.70
2018-05-10T00:46:52.136Z,79.00
2018-05-10T00:56:53.482Z,79.00
2018-05-10T01:06:54.827Z,77.70
2018-05-10T01:16:56.938Z,77.40
2018-05-10T01:37:06.887Z,77.20
2018-05-10T01:47:08.210Z,77.20
2018-05-10T01:57:10.287Z,76.70
2018-05-10T02:07:11.591Z,76.50
2018-05-10T02:17:12.910Z,76.90
2018-05-10T02:27:15.055Z,77.60
2018-05-10T02:37:16.406Z,77.60
2018-05-10T02:47:17.870Z,78.10
2018-05-10T02:57:19.216Z,78.50
2018-05-10T03:07:21.353Z,79.00
2018-05-10T03:17:22.814Z,78.90
2018-05-10T03:27:24.121Z,78.80
2018-05-10T03:37:26.250Z,79.30
2018-05-10T03:47:28.332Z,79.40
2018-05-10T03:57:29.652Z,79.40
2018-05-10T04:07:30.960Z,80.10
2018-05-10T04:17:33.114Z,79.60
2018-05-10T04:27:34.455Z,79.60
2018-05-10T04:37:36.035Z,77.90
2018-05-10T04:47:37.932Z,75.60
2018-05-10T04:57:39.369Z,73.60
2018-05-10T05:07:40.710Z,72.80
2018-05-10T05:17:42.019Z,68.90
2018-05-10T05:27:43.327Z,67.10
2018-05-10T05:37:44.638Z,68.10
2018-05-10T05:47:45.945Z,67.60
2018-05-10T05:57:47.263Z,64.40
2018-05-10T06:07:50.678Z,65.90
2018-05-10T06:17:52.097Z,65.90
2018-05-10T06:27:54.219Z,62.40
2018-05-10T06:37:56.392Z,61.70
2018-05-10T06:47:59.677Z,61.70
2018-05-10T06:58:01.597Z,58.00
2018-05-10T07:08:03.007Z,56.00
2018-05-10T07:18:04.309Z,53.20
2018-05-10T07:28:05.665Z,51.20
2018-05-10T07:48:13.989Z,42.40
2018-05-10T07:58:15.319Z,39.60
2018-05-10T08:08:16.660Z,27.80
2018-05-10T08:18:18.125Z,24.40
2018-05-10T08:28:19.597Z,23.00
2018-05-10T08:38:20.976Z,20.80
2018-05-10T08:48:23.104Z,24.20
2018-05-10T08:58:25.374Z,24.20
2018-05-10T09:08:26.752Z,24.20
2018-05-10T09:18:28.263Z,21.60
2018-05-10T09:28:29.665Z,21.00
2018-05-10T09:38:30.998Z,21.50
2018-05-10T09:48:32.376Z,20.10
2018-05-10T09:58:33.690Z,21.80
2018-05-10T10:08:35.020Z,20.20
2018-05-10T10:18:37.117Z,21.10
2018-05-10T10:28:38.485Z,21.00
2018-05-10T10:38:39.943Z,25.30
2018-05-10T10:48:41.285Z,28.50
2018-05-10T10:58:42.639Z,31.40
2018-05-10T11:08:44.749Z,32.60
2018-05-10T11:18:46.210Z,32.40
2018-05-10T11:28:47.659Z,35.40
2018-05-10T11:38:49.020Z,34.50
2018-05-10T11:48:50.533Z,34.60
2018-05-10T11:58:52.602Z,35.20
2018-05-10T12:08:53.945Z,35.10
2018-05-10T12:18:56.020Z,40.10
2018-05-10T12:28:57.342Z,40.00
2018-05-10T12:38:58.665Z,43.40
2018-05-10T12:48:59.982Z,43.10
2018-05-10T12:59:01.313Z,45.60
2018-05-10T13:09:02.662Z,41.60
2018-05-10T13:19:04.092Z,40.90
2018-05-10T13:29:05.467Z,40.20
2018-05-10T13:39:06.817Z,42.00
2018-05-10T13:49:08.167Z,42.90
2018-05-10T13:59:09.539Z,44.20
2018-05-10T14:09:11.001Z,42.60
2018-05-10T14:19:12.368Z,43.30
2018-05-10T14:39:20.107Z,44.20
2018-05-10T14:49:22.505Z,46.50
2018-05-10T14:59:23.822Z,45.40
2018-05-10T15:09:25.143Z,45.40
2018-05-10T15:19:26.462Z,46.80
2018-05-10T15:29:28.539Z,44.70
2018-05-10T15:39:29.895Z,44.70
2018-05-10T15:49:31.278Z,47.00
2018-05-10T15:59:33.002Z,46.30
2018-05-10T16:09:34.391Z,46.80
2018-05-10T16:29:42.890Z,51.70
2018-05-10T16:49:50.600Z,51.40
2018-05-10T16:59:51.918Z,54.90
2018-05-10T17:09:54.020Z,55.60
2018-05-10T17:19:56.174Z,51.80
2018-05-10T17:29:57.487Z,51.70
2018-05-10T17:39:58.912Z,52.70
2018-05-10T17:50:00.253Z,55.60
2018-05-10T18:00:01.604Z,57.20
2018-05-10T18:20:09.546Z,58.20
2018-05-10T18:30:11.670Z,59.10
2018-05-10T18:40:13.796Z,59.10
2018-05-10T18:50:15.122Z,59.10
2018-05-10T19:00:16.520Z,58.70
2018-05-10T19:10:17.902Z,60.10
2018-05-10T19:20:19.264Z,62.50
2018-05-10T19:30:20.660Z,65.00
2018-05-10T19:40:22.852Z,66.30
2018-05-10T19:50:24.211Z,66.30
2018-05-10T20:00:25.578Z,68.50
2018-05-10T20:10:27.717Z,65.40
2018-05-10T20:20:29.075Z,65.40
2018-05-10T20:30:30.427Z,66.20
2018-05-10T20:40:31.756Z,67.40
2018-05-10T20:50:33.086Z,66.10
2018-05-10T21:00:34.469Z,71.00
2018-05-10T21:10:36.558Z,75.90
2018-05-10T21:20:37.908Z,75.80
2018-05-10T21:30:41.302Z,76.20
2018-05-10T21:40:42.649Z,79.80
2018-05-10T21:50:43.999Z,81.80
2018-05-10T22:00:45.378Z,84.20
2018-05-10T22:10:46.741Z,84.90
2018-05-10T22:20:48.105Z,85.80
2018-05-10T22:30:49.449Z,86.50
2018-05-10T22:40:50.770Z,87.70
2018-05-10T22:50:52.090Z,88.40
2018-05-10T23:00:53.754Z,89.80
2018-05-10T23:10:55.090Z,87.70
2018-05-10T23:20:56.414Z,89.10
2018-05-10T23:30:58.836Z,88.80
2018-05-10T23:41:00.983Z,88.30
2018-05-10T23:51:02.345Z,88.30
